Time,TemperatureF,DewpointF,PressureIn,WindDirection,WindDirectionDegrees,WindSpeedMPH,WindSpeedGustMPH,Humidity,HourlyPrecipIn,Conditions,Clouds,dailyrainin,SoftwareType,DateUTC
2013-03-23 00:00:00,57.6,30.1,29.94,ESE,119,1.0,2.0,35,0.00,,,0.01,Wunderground v.1.15,2013-03-23 07:00:00,
2013-03-23 00:05:00,57.5,29.3,29.94,East,93,0.0,4.0,34,0.00,,,0.01,Wunderground v.1.15,2013-03-23 07:05:00,
2013-03-23 00:10:00,57.2,28.3,29.94,East,93,0.0,0.0,33,0.00,,,0.01,Wunderground v.1.15,2013-03-23 07:10:00,
2013-03-23 00:15:00,56.9,28.1,29.94,East,93,0.0,2.0,33,0.00,,,0.01,Wunderground v.1.15,2013-03-23 07:15:00,
2013-03-23 00:20:00,56.6,26.3,29.94,East,93,0.0,0.0,31,0.00,,,0.01,Wunderground v.1.15,2013-03-23 07:20:00,
2013-03-23 00:25:00,56.2,25.9,29.94,ESE,120,1.0,1.0,31,0.00,,,0.01,Wunderground v.1.15,2013-03-23 07:25:00,
2013-03-23 00:30:00,56.3,26.0,29.93,ENE,70,1.0,1.0,31,0.00,,,0.01,Wunderground v.1.15,2013-03-23 07:30:00,
2013-03-23 00:35:00,56.3,26.0,29.93,WNW,289,2.0,3.0,31,0.00,,,0.01,Wunderground v.1.15,2013-03-23 07:35:00,
2013-03-23 00:40:00,56.0,28.0,29.93,WNW,289,2.0,2.0,34,0.00,,,0.01,Wunderground v.1.15,2013-03-23 07:40:00,
2013-03-23 00:45:00,55.4,28.9,29.93,West,278,1.0,4.0,36,0.00,,,0.01,Wunderground v.1.15,2013-03-23 07:45:00,
2013-03-23 00:50:00,54.7,27.6,29.93,West,278,2.0,3.0,35,0.00,,,0.01,Wunderground v.1.15,2013-03-23 07:50:00,
2013-03-23 00:55:00,54.5,27.4,29.93,West,278,3.0,3.0,35,0.00,,,0.01,Wunderground v.1.15,2013-03-23 07:55:00,
2013-03-23 01:00:00,54.5,26.7,29.94,West,278,3.0,3.0,34,0.00,,,0.00,Wunderground v.1.15,2013-03-23 08:00:00,
2013-03-23 01:05:00,54.1,35.9,29.94,West,280,3.0,4.0,50,0.00,,,0.00,Wunderground v.1.15,2013-03-23 08:05:00,
2013-03-23 01:10:00,53.3,38.0,29.94,West,280,0.0,3.0,56,0.00,,,0.00,Wunderground v.1.15,2013-03-23 08:10:00,
2013-03-23 01:15:00,52.5,36.8,29.95,West,280,2.0,3.0,55,0.00,,,0.00,Wunderground v.1.15,2013-03-23 08:15:00,
2013-03-23 01:20:00,51.7,35.6,29.95,West,280,2.0,3.0,54,0.00,,,0.00,Wunderground v.1.15,2013-03-23 08:20:00,
2013-03-23 01:25:00,51.3,35.7,29.95,West,280,2.0,3.0,55,0.00,,,0.00,Wunderground v.1.15,2013-03-23 08:25:00,
2013-03-23 01:40:00,51.7,35.1,29.95,West,280,0.0,3.0,53,0.00,,,0.00,Wunderground v.1.15,2013-03-23 08:40:00,
2013-03-23 01:45:00,50.7,32.7,29.94,West,280,2.0,4.0,50,0.00,,,0.00,Wunderground v.1.15,2013-03-23 08:45:00,
2013-03-23 01:50:00,50.2,32.3,29.94,WNW,295,1.0,4.0,50,0.00,,,0.00,Wunderground v.1.15,2013-03-23 08:50:00,
2013-03-23 01:55:00,49.6,34.1,29.94,West,279,2.0,3.0,55,0.00,,,0.00,Wunderground v.1.15,2013-03-23 08:55:00,
2013-03-23 02:00:00,48.9,32.5,29.95,West,279,0.0,1.0,53,0.00,,,0.00,Wunderground v.1.15,2013-03-23 09:00:00,
2013-03-23 02:05:00,48.6,33.1,29.95,West,279,0.0,1.0,55,0.00,,,0.00,Wunderground v.1.15,2013-03-23 09:05:00,
2013-03-23 02:10:00,48.5,30.7,29.95,West,279,2.0,2.0,50,0.00,,,0.00,Wunderground v.1.15,2013-03-23 09:10:00,
2013-03-23 02:15:00,48.0,32.1,29.95,West,279,2.0,2.0,54,0.00,,,0.00,Wunderground v.1.15,2013-03-23 09:15:00,
2013-03-23 02:20:00,48.3,30.0,29.95,West,279,0.0,1.0,49,0.00,,,0.00,Wunderground v.1.15,2013-03-23 09:20:00,
2013-03-23 02:25:00,48.5,29.7,29.95,West,279,0.0,2.0,48,0.00,,,0.00,Wunderground v.1.15,2013-03-23 09:25:00,
2013-03-23 02:30:00,49.4,28.9,29.95,West,279,2.0,2.0,45,0.00,,,0.00,Wunderground v.1.15,2013-03-23 09:30:00,
2013-03-23 02:35:00,50.1,29.6,29.95,West,279,3.0,3.0,45,0.00,,,0.00,Wunderground v.1.15,2013-03-23 09:35:00,
2013-03-23 02:40:00,50.4,28.1,29.95,West,279,2.0,3.0,42,0.00,,,0.00,Wunderground v.1.15,2013-03-23 09:40:00,
2013-03-23 02:45:00,51.0,28.1,29.94,West,279,1.0,3.0,41,0.00,,,0.00,Wunderground v.1.15,2013-03-23 09:45:00,
2013-03-23 02:50:00,51.0,28.1,29.94,West,279,2.0,2.0,41,0.00,,,0.00,Wunderground v.1.15,2013-03-23 09:50:00,
2013-03-23 02:55:00,51.3,28.4,29.94,West,279,1.0,3.0,41,0.00,,,0.00,Wunderground v.1.15,2013-03-23 09:55:00,
2013-03-23 03:00:00,51.3,28.4,29.94,West,279,0.0,2.0,41,0.00,,,0.00,Wunderground v.1.15,2013-03-23 10:00:00,
2013-03-23 03:05:00,50.4,29.8,29.94,West,279,1.0,2.0,45,0.00,,,0.00,Wunderground v.1.15,2013-03-23 10:05:00,
2013-03-23 03:10:00,49.9,27.7,29.94,West,279,1.0,2.0,42,0.00,,,0.00,Wunderground v.1.15,2013-03-23 10:10:00,
2013-03-23 03:15:00,50.7,26.6,29.93,West,279,3.0,3.0,39,0.00,,,0.00,Wunderground v.1.15,2013-03-23 10:15:00,
2013-03-23 03:20:00,51.3,27.2,29.93,West,279,1.0,3.0,39,0.00,,,0.00,Wunderground v.1.15,2013-03-23 10:20:00,
2013-03-23 03:25:00,51.7,26.9,29.93,West,279,0.0,3.0,38,0.00,,,0.00,Wunderground v.1.15,2013-03-23 10:25:00,
2013-03-23 03:30:00,51.3,29.0,29.93,West,279,0.0,1.0,42,0.00,,,0.00,Wunderground v.1.15,2013-03-23 10:30:00,
2013-03-23 03:35:00,50.2,31.2,29.93,West,278,2.0,4.0,48,0.00,,,0.00,Wunderground v.1.15,2013-03-23 10:35:00,
2013-03-23 03:40:00,49.4,28.9,29.93,WSW,248,1.0,3.0,45,0.00,,,0.00,Wunderground v.1.15,2013-03-23 10:40:00,
2013-03-23 03:45:00,49.2,28.7,29.93,WSW,257,3.0,3.0,45,0.00,,,0.00,Wunderground v.1.15,2013-03-23 10:45:00,
2013-03-23 03:50:00,49.1,28.1,29.93,West,259,3.0,3.0,44,0.00,,,0.00,Wunderground v.1.15,2013-03-23 10:50:00,
2013-03-23 03:55:00,49.2,27.1,29.93,West,263,0.0,4.0,42,0.00,,,0.00,Wunderground v.1.15,2013-03-23 10:55:00,
2013-03-23 04:00:00,49.2,26.5,29.93,West,263,2.0,2.0,41,0.00,,,0.00,Wunderground v.1.15,2013-03-23 11:00:00,
2013-03-23 04:05:00,49.4,30.0,29.93,West,263,1.0,2.0,47,0.00,,,0.00,Wunderground v.1.15,2013-03-23 11:05:00,
2013-03-23 04:10:00,49.1,29.7,29.93,West,263,0.0,1.0,47,0.00,,,0.00,Wunderground v.1.15,2013-03-23 11:10:00,
2013-03-23 04:15:00,48.3,30.0,29.94,West,263,0.0,1.0,49,0.00,,,0.00,Wunderground v.1.15,2013-03-23 11:15:00,
2013-03-23 04:20:00,47.7,28.9,29.94,West,263,1.0,1.0,48,0.00,,,0.00,Wunderground v.1.15,2013-03-23 11:20:00,
2013-03-23 04:25:00,47.9,28.1,29.94,West,263,1.0,2.0,46,0.00,,,0.00,Wunderground v.1.15,2013-03-23 11:25:00,
2013-03-23 04:30:00,47.9,30.1,29.94,West,263,0.0,1.0,50,0.00,,,0.00,Wunderground v.1.15,2013-03-23 11:30:00,
2013-03-23 04:49:00,48.8,28.4,29.94,West,263,0.0,2.0,45,0.00,,,0.00,Wunderground v.1.15,2013-03-23 11:49:00,
2013-03-23 04:54:00,48.2,29.4,29.94,West,263,2.0,3.0,48,0.00,,,0.00,Wunderground v.1.15,2013-03-23 11:54:00,
2013-03-23 04:59:00,48.3,30.0,29.94,West,263,0.0,3.0,49,0.00,,,0.00,Wunderground v.1.15,2013-03-23 11:59:00,
2013-03-23 05:04:00,47.7,30.0,29.94,West,263,0.0,1.0,50,0.00,,,0.00,Wunderground v.1.15,2013-03-23 12:04:00,
2013-03-23 05:09:00,46.8,30.6,29.94,West,263,0.0,1.0,53,0.00,,,0.00,Wunderground v.1.15,2013-03-23 12:09:00,
2013-03-23 05:15:00,46.4,32.0,29.94,West,263,2.0,2.0,57,0.00,,,0.00,Wunderground v.1.15,2013-03-23 12:15:00,
2013-03-23 05:35:00,46.4,34.1,29.95,WSW,256,2.0,2.0,62,0.00,,,0.00,Wunderground v.1.15,2013-03-23 12:35:00,
2013-03-23 06:04:00,44.1,34.9,29.95,SW,223,0.0,3.0,70,0.00,,,0.00,Wunderground v.1.15,2013-03-23 13:04:00,
2013-03-23 07:17:00,41.3,34.0,29.97,WSW,258,0.0,1.0,75,0.00,,,0.00,Wunderground v.1.15,2013-03-23 14:17:00,
2013-03-23 07:23:00,41.2,33.9,29.97,WSW,258,0.0,0.0,75,0.00,,,0.00,Wunderground v.1.15,2013-03-23 14:23:00,
2013-03-23 07:28:00,41.1,34.1,29.97,WSW,258,0.0,3.0,76,0.00,,,0.00,Wunderground v.1.15,2013-03-23 14:28:00,
2013-03-23 07:33:00,41.5,34.2,29.98,WSW,258,0.0,1.0,75,0.00,,,0.00,Wunderground v.1.15,2013-03-23 14:33:00,
2013-03-23 07:38:00,41.6,34.3,29.98,WSW,258,0.0,2.0,75,0.00,,,0.00,Wunderground v.1.15,2013-03-23 14:38:00,
2013-03-23 07:43:00,41.8,34.5,29.98,WSW,258,0.0,2.0,75,0.00,,,0.00,Wunderground v.1.15,2013-03-23 14:43:00,
2013-03-23 07:48:00,42.2,35.2,29.99,WSW,258,0.0,2.0,76,0.00,,,0.00,Wunderground v.1.15,2013-03-23 14:48:00,
2013-03-23 07:53:00,43.2,35.1,29.99,WSW,258,0.0,0.0,73,0.00,,,0.00,Wunderground v.1.15,2013-03-23 14:53:00,
2013-03-23 07:58:00,44.1,36.0,29.99,WSW,258,0.0,1.0,73,0.00,,,0.00,Wunderground v.1.15,2013-03-23 14:58:00,
2013-03-23 08:03:00,44.9,36.1,29.98,WSW,258,0.0,0.0,71,0.00,,,0.00,Wunderground v.1.15,2013-03-23 15:03:00,
2013-03-23 08:08:00,46.0,37.1,29.98,WSW,258,0.0,1.0,71,0.00,,,0.00,Wunderground v.1.15,2013-03-23 15:08:00,
2013-03-23 08:13:00,46.5,38.0,29.98,WSW,252,0.0,1.0,72,0.00,,,0.00,Wunderground v.1.15,2013-03-23 15:13:00,
2013-03-23 08:18:00,47.1,38.2,29.98,WSW,252,0.0,1.0,71,0.00,,,0.00,Wunderground v.1.15,2013-03-23 15:18:00,
2013-03-23 08:23:00,48.0,38.3,29.98,WSW,252,0.0,2.0,69,0.00,,,0.00,Wunderground v.1.15,2013-03-23 15:23:00,
2013-03-23 08:28:00,49.2,38.7,29.98,WSW,252,0.0,2.0,67,0.00,,,0.00,Wunderground v.1.15,2013-03-23 15:28:00,
2013-03-23 08:33:00,50.2,38.9,29.99,WSW,252,0.0,0.0,65,0.00,,,0.00,Wunderground v.1.15,2013-03-23 15:33:00,
2013-03-23 08:38:00,51.4,38.8,29.99,WSW,252,0.0,0.0,62,0.00,,,0.00,Wunderground v.1.15,2013-03-23 15:38:00,
2013-03-23 08:43:00,52.6,38.7,29.99,WSW,252,0.0,0.0,59,0.00,,,0.00,Wunderground v.1.15,2013-03-23 15:43:00,
2013-03-23 08:48:00,53.8,38.9,29.99,WSW,252,0.0,0.0,57,0.00,,,0.00,Wunderground v.1.15,2013-03-23 15:48:00,
2013-03-23 08:53:00,55.3,39.9,29.99,SE,132,2.0,2.0,56,0.00,,,0.00,Wunderground v.1.15,2013-03-23 15:53:00,
2013-03-23 08:58:00,56.3,41.3,29.99,SE,132,0.0,2.0,57,0.00,,,0.00,Wunderground v.1.15,2013-03-23 15:58:00,
2013-03-23 09:03:00,56.7,41.6,30.00,SE,132,0.0,1.0,57,0.00,,,0.00,Wunderground v.1.15,2013-03-23 16:03:00,
2013-03-23 09:08:00,57.2,43.4,30.00,WNW,301,1.0,3.0,60,0.00,,,0.00,Wunderground v.1.15,2013-03-23 16:08:00,
2013-03-23 09:13:00,57.5,43.3,30.00,South,169,0.0,3.0,59,0.00,,,0.00,Wunderground v.1.15,2013-03-23 16:13:00,
2013-03-23 09:18:00,58.3,44.5,30.00,South,169,0.0,3.0,60,0.00,,,0.00,Wunderground v.1.15,2013-03-23 16:18:00,
2013-03-23 09:23:00,59.0,43.8,30.00,East,88,1.0,3.0,57,0.00,,,0.00,Wunderground v.1.15,2013-03-23 16:23:00,
2013-03-23 09:29:00,59.2,44.0,30.00,WSW,244,2.0,3.0,57,0.00,,,0.00,Wunderground v.1.15,2013-03-23 16:29:00,
2013-03-23 09:34:00,59.5,44.7,30.00,WSW,244,0.0,1.0,58,0.00,,,0.00,Wunderground v.1.15,2013-03-23 16:34:00,
2013-03-23 09:39:00,60.4,45.5,30.00,East,101,1.0,2.0,58,0.00,,,0.00,Wunderground v.1.15,2013-03-23 16:39:00,
2013-03-23 09:44:00,60.7,44.9,30.01,East,101,2.0,2.0,56,0.00,,,0.00,Wunderground v.1.15,2013-03-23 16:44:00,
2013-03-23 09:49:00,60.9,43.1,30.01,SE,145,0.0,3.0,52,0.00,,,0.00,Wunderground v.1.15,2013-03-23 16:49:00,
2013-03-23 09:54:00,61.3,44.5,30.01,SSW,208,0.0,3.0,54,0.00,,,0.00,Wunderground v.1.15,2013-03-23 16:54:00,
2013-03-23 09:59:00,62.1,44.8,30.01,South,172,1.0,3.0,53,0.00,,,0.00,Wunderground v.1.15,2013-03-23 16:59:00,
2013-03-23 10:04:00,62.9,45.0,30.01,ENE,76,0.0,2.0,52,0.00,,,0.00,Wunderground v.1.15,2013-03-23 17:04:00,
2013-03-23 10:09:00,63.5,45.6,30.01,East,86,3.0,3.0,52,0.00,,,0.00,Wunderground v.1.15,2013-03-23 17:09:00,
2013-03-23 10:14:00,63.5,45.0,30.00,East,99,2.0,3.0,51,0.00,,,0.00,Wunderground v.1.15,2013-03-23 17:14:00,
2013-03-23 10:19:00,63.4,44.9,30.00,ESE,119,2.0,3.0,51,0.00,,,0.00,Wunderground v.1.15,2013-03-23 17:19:00,
2013-03-23 10:24:00,63.4,42.2,30.00,NE,55,1.0,3.0,46,0.00,,,0.00,Wunderground v.1.15,2013-03-23 17:24:00,
2013-03-23 10:29:00,63.9,40.3,30.00,ESE,115,2.0,4.0,42,0.00,,,0.00,Wunderground v.1.15,2013-03-23 17:29:00,
2013-03-23 10:34:00,63.5,38.1,30.00,ESE,105,0.0,3.0,39,0.00,,,0.00,Wunderground v.1.15,2013-03-23 17:34:00,
2013-03-23 10:39:00,63.7,33.3,30.00,ESE,105,1.0,3.0,32,0.00,,,0.00,Wunderground v.1.15,2013-03-23 17:39:00,
2013-03-23 10:44:00,64.5,36.2,30.00,ESE,108,3.0,4.0,35,0.00,,,0.00,Wunderground v.1.15,2013-03-23 17:44:00,
2013-03-23 10:49:00,65.5,32.4,30.00,East,94,0.0,4.0,29,0.00,,,0.00,Wunderground v.1.15,2013-03-23 17:49:00,
2013-03-23 10:54:00,65.8,33.5,30.00,ESE,105,2.0,3.0,30,0.00,,,0.00,Wunderground v.1.15,2013-03-23 17:54:00,
2013-03-23 10:59:00,66.1,31.1,29.99,SE,130,0.0,3.0,27,0.00,,,0.00,Wunderground v.1.15,2013-03-23 17:59:00,
2013-03-23 11:04:00,66.0,31.9,29.99,ESE,112,2.0,4.0,28,0.00,,,0.00,Wunderground v.1.15,2013-03-23 18:04:00,
2013-03-23 11:09:00,66.1,32.0,29.99,East,97,1.0,4.0,28,0.00,,,0.00,Wunderground v.1.15,2013-03-23 18:09:00,
2013-03-23 11:14:00,66.4,29.5,29.99,East,96,3.0,5.0,25,0.00,,,0.00,Wunderground v.1.15,2013-03-23 18:14:00,
2013-03-23 11:19:00,67.1,31.0,29.99,North,7,1.0,5.0,26,0.00,,,0.00,Wunderground v.1.15,2013-03-23 18:19:00,
2013-03-23 11:24:00,68.3,33.0,29.99,North,8,1.0,3.0,27,0.00,,,0.00,Wunderground v.1.15,2013-03-23 18:24:00,
2013-03-23 11:29:00,68.8,29.5,29.98,ENE,75,1.0,9.0,23,0.00,,,0.00,Wunderground v.1.15,2013-03-23 18:29:00,
2013-03-23 11:34:00,68.8,30.5,29.98,East,82,3.0,6.0,24,0.00,,,0.00,Wunderground v.1.15,2013-03-23 18:34:00,
2013-03-23 11:39:00,68.9,29.5,29.98,ENE,58,0.0,6.0,23,0.00,,,0.00,Wunderground v.1.15,2013-03-23 18:39:00,
2013-03-23 11:44:00,68.8,30.5,29.98,ESE,105,3.0,6.0,24,0.00,,,0.00,Wunderground v.1.15,2013-03-23 18:44:00,
2013-03-23 11:49:00,69.3,30.9,29.98,NE,46,4.0,6.0,24,0.00,,,0.00,Wunderground v.1.15,2013-03-23 18:49:00,
2013-03-23 11:54:00,69.9,32.5,29.98,NE,56,0.0,4.0,25,0.00,,,0.00,Wunderground v.1.15,2013-03-23 18:54:00,
2013-03-23 11:59:00,69.9,32.5,29.98,SSE,147,3.0,7.0,25,0.00,,,0.00,Wunderground v.1.15,2013-03-23 18:59:00,
2013-03-23 12:04:00,70.4,33.9,29.98,ESE,110,4.0,5.0,26,0.00,,,0.00,Wunderground v.1.15,2013-03-23 19:04:00,
2013-03-23 12:09:00,70.3,41.3,29.98,NW,319,0.0,5.0,35,0.00,,,0.00,Wunderground v.1.15,2013-03-23 19:09:00,
2013-03-23 12:14:00,69.8,44.4,29.98,West,274,3.0,7.0,40,0.00,,,0.00,Wunderground v.1.15,2013-03-23 19:14:00,
2013-03-23 12:19:00,67.8,41.3,29.98,WSW,257,3.0,7.0,38,0.00,,,0.00,Wunderground v.1.15,2013-03-23 19:19:00,
2013-03-23 12:24:00,66.4,45.5,29.98,WSW,257,5.0,9.0,47,0.00,,,0.00,Wunderground v.1.15,2013-03-23 19:24:00,
2013-03-23 12:29:00,64.3,44.2,29.98,West,267,4.0,11.0,48,0.00,,,0.00,Wunderground v.1.15,2013-03-23 19:29:00,
2013-03-23 12:34:00,63.7,44.7,29.98,West,269,1.0,6.0,50,0.00,,,0.00,Wunderground v.1.15,2013-03-23 19:34:00,
2013-03-23 12:39:00,63.5,44.0,29.98,WSW,238,3.0,6.0,49,0.00,,,0.00,Wunderground v.1.15,2013-03-23 19:39:00,
2013-03-23 12:44:00,62.6,43.2,29.98,West,266,6.0,6.0,49,0.00,,,0.00,Wunderground v.1.15,2013-03-23 19:44:00,
2013-03-23 12:49:00,62.1,39.9,29.98,SW,216,3.0,9.0,44,0.00,,,0.00,Wunderground v.1.15,2013-03-23 19:49:00,
2013-03-23 12:54:00,62.4,39.0,29.98,North,0,0.0,6.0,42,0.00,,,0.00,Wunderground v.1.15,2013-03-23 19:54:00,
2013-03-23 12:59:00,62.9,41.2,29.98,NNW,341,1.0,6.0,45,0.00,,,0.00,Wunderground v.1.15,2013-03-23 19:59:00,
2013-03-23 13:04:00,62.4,41.3,29.98,North,0,2.0,10.0,46,0.00,,,0.00,Wunderground v.1.15,2013-03-23 20:04:00,
2013-03-23 13:09:00,62.6,43.7,29.98,NNE,19,0.0,10.0,50,0.00,,,0.00,Wunderground v.1.15,2013-03-23 20:09:00,
2013-03-23 13:14:00,62.9,44.5,29.98,North,349,1.0,4.0,51,0.00,,,0.00,Wunderground v.1.15,2013-03-23 20:14:00,
2013-03-23 13:19:00,62.6,45.7,29.98,NE,41,2.0,7.0,54,0.00,,,0.00,Wunderground v.1.15,2013-03-23 20:19:00,
2013-03-23 13:24:00,62.4,44.5,29.98,South,188,3.0,5.0,52,0.00,,,0.00,Wunderground v.1.15,2013-03-23 20:24:00,
2013-03-23 13:29:00,62.9,44.0,29.98,NW,304,3.0,7.0,50,0.00,,,0.00,Wunderground v.1.15,2013-03-23 20:29:00,
2013-03-23 13:34:00,62.9,41.8,29.98,WSW,239,4.0,4.0,46,0.00,,,0.00,Wunderground v.1.15,2013-03-23 20:34:00,
2013-03-23 13:39:00,63.2,40.9,29.98,NNW,340,2.0,7.0,44,0.00,,,0.00,Wunderground v.1.15,2013-03-23 20:39:00,
2013-03-23 13:44:00,63.9,40.3,29.97,West,270,0.0,3.0,42,0.00,,,0.00,Wunderground v.1.15,2013-03-23 20:44:00,
2013-03-23 13:49:00,64.7,38.5,29.97,SE,144,0.0,3.0,38,0.00,,,0.00,Wunderground v.1.15,2013-03-23 20:49:00,
2013-03-23 13:54:00,65.0,40.7,29.97,SSW,205,1.0,3.0,41,0.00,,,0.00,Wunderground v.1.15,2013-03-23 20:54:00,
2013-03-23 13:59:00,65.2,38.3,29.97,WNW,297,2.0,9.0,37,0.00,,,0.00,Wunderground v.1.15,2013-03-23 20:59:00,
2013-03-23 14:04:00,65.2,37.6,29.97,SSW,192,0.0,6.0,36,0.00,,,0.00,Wunderground v.1.15,2013-03-23 21:04:00,
2013-03-23 14:09:00,65.8,37.4,29.97,ENE,65,0.0,6.0,35,0.00,,,0.00,Wunderground v.1.15,2013-03-23 21:09:00,
2013-03-23 14:14:00,65.6,34.9,29.96,North,357,4.0,7.0,32,0.00,,,0.00,Wunderground v.1.15,2013-03-23 21:14:00,
2013-03-23 14:19:00,65.6,34.1,29.96,West,281,0.0,7.0,31,0.00,,,0.00,Wunderground v.1.15,2013-03-23 21:19:00,
2013-03-23 14:24:00,66.3,34.7,29.96,SW,224,1.0,6.0,31,0.00,,,0.00,Wunderground v.1.15,2013-03-23 21:24:00,
2013-03-23 14:29:00,66.0,32.8,29.95,North,5,3.0,10.0,29,0.00,,,0.00,Wunderground v.1.15,2013-03-23 21:29:00,
2013-03-23 14:34:00,65.6,33.3,29.95,NW,323,1.0,6.0,30,0.00,,,0.00,Wunderground v.1.15,2013-03-23 21:34:00,
2013-03-23 14:39:00,66.1,31.1,29.95,North,4,3.0,6.0,27,0.00,,,0.00,Wunderground v.1.15,2013-03-23 21:39:00,
2013-03-23 14:44:00,66.1,32.0,29.95,NE,34,0.0,7.0,28,0.00,,,0.00,Wunderground v.1.15,2013-03-23 21:44:00,
2013-03-23 14:49:00,66.8,30.8,29.95,North,8,2.0,7.0,26,0.00,,,0.00,Wunderground v.1.15,2013-03-23 21:49:00,
2013-03-23 14:54:00,67.4,32.2,29.95,South,170,0.0,3.0,27,0.00,,,0.00,Wunderground v.1.15,2013-03-23 21:54:00,
2013-03-23 14:59:00,68.3,32.1,29.95,NNW,333,0.0,4.0,26,0.00,,,0.00,Wunderground v.1.15,2013-03-23 21:59:00,
2013-03-23 15:04:00,68.3,31.1,29.95,SE,145,1.0,3.0,25,0.00,,,0.00,Wunderground v.1.15,2013-03-23 22:04:00,
2013-03-23 15:09:00,67.4,32.2,29.95,North,6,0.0,3.0,27,0.00,,,0.00,Wunderground v.1.15,2013-03-23 22:09:00,
2013-03-23 15:15:00,67.6,33.3,29.94,SSW,203,1.0,3.0,28,0.00,,,0.00,Wunderground v.1.15,2013-03-23 22:15:00,
2013-03-23 15:20:00,66.9,31.8,29.94,SW,235,0.0,3.0,27,0.00,,,0.00,Wunderground v.1.15,2013-03-23 22:20:00,
2013-03-23 15:25:00,66.3,34.7,29.94,NNE,27,0.0,3.0,31,0.00,,,0.00,Wunderground v.1.15,2013-03-23 22:25:00,
2013-03-23 15:30:00,65.3,38.3,29.93,North,4,2.0,6.0,37,0.00,,,0.00,Wunderground v.1.15,2013-03-23 22:30:00,
2013-03-23 15:35:00,64.2,41.8,29.93,SSE,147,0.0,6.0,44,0.00,,,0.00,Wunderground v.1.15,2013-03-23 22:35:00,
2013-03-23 15:40:00,63.7,44.2,29.93,South,191,0.0,6.0,49,0.00,,,0.00,Wunderground v.1.15,2013-03-23 22:40:00,
2013-03-23 15:45:00,63.1,43.1,29.94,North,349,5.0,5.0,48,0.00,,,0.00,Wunderground v.1.15,2013-03-23 22:45:00,
2013-03-23 15:50:00,61.8,43.0,29.94,West,263,0.0,8.0,50,0.00,,,0.00,Wunderground v.1.15,2013-03-23 22:50:00,
2013-03-23 15:55:00,61.0,44.7,29.94,SW,221,1.0,2.0,55,0.00,,,0.00,Wunderground v.1.15,2013-03-23 22:55:00,
2013-03-23 16:00:00,60.4,43.7,29.93,South,171,1.0,2.0,54,0.00,,,0.00,Wunderground v.1.15,2013-03-23 23:00:00,
2013-03-23 16:05:00,60.4,43.7,29.93,SSE,160,0.0,3.0,54,0.00,,,0.00,Wunderground v.1.15,2013-03-23 23:05:00,
2013-03-23 16:10:00,60.7,41.4,29.93,West,262,0.0,0.0,49,0.00,,,0.00,Wunderground v.1.15,2013-03-23 23:10:00,
2013-03-23 16:15:00,61.2,42.4,29.93,West,262,0.0,0.0,50,0.00,,,0.00,Wunderground v.1.15,2013-03-23 23:15:00,
2013-03-23 16:20:00,61.3,44.0,29.93,WSW,250,1.0,1.0,53,0.00,,,0.00,Wunderground v.1.15,2013-03-23 23:20:00,
2013-03-23 16:25:00,60.7,43.0,29.93,WSW,257,1.0,3.0,52,0.00,,,0.00,Wunderground v.1.15,2013-03-23 23:25:00,
2013-03-23 16:30:00,59.9,42.7,29.93,West,263,1.0,1.0,53,0.00,,,0.00,Wunderground v.1.15,2013-03-23 23:30:00,
2013-03-23 16:35:00,59.5,43.3,29.93,North,0,1.0,4.0,55,0.00,,,0.00,Wunderground v.1.15,2013-03-23 23:35:00,
2013-03-23 16:40:00,59.3,42.2,29.93,North,352,0.0,1.0,53,0.00,,,0.00,Wunderground v.1.15,2013-03-23 23:40:00,
2013-03-23 16:45:00,59.2,43.0,29.94,West,270,2.0,3.0,55,0.00,,,0.00,Wunderground v.1.15,2013-03-23 23:45:00,
2013-03-23 16:50:00,58.4,43.2,29.94,West,281,0.0,1.0,57,0.00,,,0.00,Wunderground v.1.15,2013-03-23 23:50:00,
2013-03-23 16:55:00,58.3,44.5,29.94,SSE,157,0.0,4.0,60,0.00,,,0.00,Wunderground v.1.15,2013-03-23 23:55:00,
2013-03-23 17:00:00,57.8,45.7,29.94,North,349,1.0,2.0,64,0.00,,,0.00,Wunderground v.1.15,2013-03-24 00:00:00,
2013-03-23 18:50:00,53.1,47.4,29.93,NW,312,0.0,3.0,81,0.00,,,0.00,Wunderground v.1.15,2013-03-24 01:50:00,
2013-03-23 18:55:00,52.6,47.3,29.93,WSW,257,0.0,3.0,82,0.00,,,0.00,Wunderground v.1.15,2013-03-24 01:55:00,
2013-03-23 19:00:00,52.3,47.3,29.93,WSW,257,2.0,3.0,83,0.00,,,0.00,Wunderground v.1.15,2013-03-24 02:00:00,
2013-03-23 19:05:00,51.9,47.2,29.93,West,269,2.0,4.0,84,0.00,,,0.00,Wunderground v.1.15,2013-03-24 02:05:00,
2013-03-23 19:10:00,51.4,47.0,29.93,SW,234,3.0,5.0,85,0.00,,,0.00,Wunderground v.1.15,2013-03-24 02:10:00,
2013-03-23 19:15:00,51.1,47.1,29.94,WNW,282,0.0,5.0,86,0.00,,,0.00,Wunderground v.1.15,2013-03-24 02:15:00,
2013-03-23 19:20:00,51.0,47.3,29.94,West,261,0.0,5.0,87,0.00,,,0.00,Wunderground v.1.15,2013-03-24 02:20:00,
2013-03-23 19:25:00,51.0,47.3,29.94,West,261,0.0,2.0,87,0.00,,,0.00,Wunderground v.1.15,2013-03-24 02:25:00,
2013-03-23 19:30:00,50.8,47.4,29.94,West,261,0.0,2.0,88,0.00,,,0.00,Wunderground v.1.15,2013-03-24 02:30:00,
2013-03-23 19:35:00,50.7,47.3,29.94,West,261,0.0,0.0,88,0.00,,,0.00,Wunderground v.1.15,2013-03-24 02:35:00,
2013-03-23 19:40:00,50.5,47.1,29.94,West,261,0.0,0.0,88,0.00,,,0.00,Wunderground v.1.15,2013-03-24 02:40:00,
2013-03-23 19:45:00,50.2,47.1,29.95,West,261,0.0,1.0,89,0.00,,,0.00,Wunderground v.1.15,2013-03-24 02:45:00,
2013-03-23 19:50:00,49.9,46.8,29.95,West,261,0.0,0.0,89,0.00,,,0.00,Wunderground v.1.15,2013-03-24 02:50:00,
2013-03-23 19:55:00,49.6,46.5,29.95,West,261,2.0,2.0,89,0.00,,,0.00,Wunderground v.1.15,2013-03-24 02:55:00,
2013-03-23 20:00:00,49.6,46.8,29.95,West,261,3.0,3.0,90,0.00,,,0.00,Wunderground v.1.15,2013-03-24 03:00:00,
2013-03-23 20:05:00,49.5,47.0,29.95,West,270,3.0,5.0,91,0.00,,,0.00,Wunderground v.1.15,2013-03-24 03:05:00,
2013-03-23 20:10:00,49.5,47.0,29.95,West,271,0.0,1.0,91,0.00,,,0.00,Wunderground v.1.15,2013-03-24 03:10:00,
2013-03-23 20:15:00,49.2,46.7,29.95,West,271,0.0,1.0,91,0.00,,,0.00,Wunderground v.1.15,2013-03-24 03:15:00,
2013-03-23 20:20:00,48.9,46.4,29.95,West,271,0.0,0.0,91,0.00,,,0.00,Wunderground v.1.15,2013-03-24 03:20:00,
2013-03-23 20:25:00,48.6,46.1,29.95,West,271,0.0,1.0,91,0.00,,,0.00,Wunderground v.1.15,2013-03-24 03:25:00,
2013-03-23 20:30:00,48.5,46.0,29.95,West,271,0.0,0.0,91,0.00,,,0.00,Wunderground v.1.15,2013-03-24 03:30:00,
2013-03-23 20:35:00,48.2,46.0,29.95,West,271,0.0,0.0,92,0.00,,,0.00,Wunderground v.1.15,2013-03-24 03:35:00,
2013-03-23 20:40:00,48.0,45.8,29.95,West,271,0.0,0.0,92,0.00,,,0.00,Wunderground v.1.15,2013-03-24 03:40:00,
2013-03-23 20:45:00,47.9,45.7,29.95,West,271,0.0,0.0,92,0.00,,,0.00,Wunderground v.1.15,2013-03-24 03:45:00,
2013-03-23 20:50:00,47.7,45.5,29.95,West,271,0.0,0.0,92,0.00,,,0.00,Wunderground v.1.15,2013-03-24 03:50:00,
2013-03-23 20:55:00,47.6,45.7,29.95,West,271,0.0,0.0,93,0.00,,,0.00,Wunderground v.1.15,2013-03-24 03:55:00,
2013-03-23 21:00:00,47.4,45.5,29.96,West,271,0.0,0.0,93,0.00,,,0.00,Wunderground v.1.15,2013-03-24 04:00:00,
2013-03-23 21:05:00,47.3,45.4,29.96,West,271,0.0,0.0,93,0.00,,,0.00,Wunderground v.1.15,2013-03-24 04:05:00,
2013-03-23 21:10:00,47.1,45.2,29.96,West,271,0.0,0.0,93,0.00,,,0.00,Wunderground v.1.15,2013-03-24 04:10:00,
2013-03-23 21:15:00,47.0,45.1,29.97,West,271,0.0,0.0,93,0.00,,,0.00,Wunderground v.1.15,2013-03-24 04:15:00,
2013-03-23 21:20:00,46.7,44.8,29.97,West,271,0.0,0.0,93,0.00,,,0.00,Wunderground v.1.15,2013-03-24 04:20:00,
2013-03-23 21:25:00,46.2,44.3,29.97,West,271,0.0,0.0,93,0.00,,,0.00,Wunderground v.1.15,2013-03-24 04:25:00,
2013-03-23 21:30:00,46.1,44.5,29.97,West,271,0.0,0.0,94,0.00,,,0.00,Wunderground v.1.15,2013-03-24 04:30:00,
2013-03-23 21:35:00,46.0,44.4,29.97,West,271,0.0,0.0,94,0.00,,,0.00,Wunderground v.1.15,2013-03-24 04:35:00,
2013-03-23 22:55:00,44.1,43.0,29.98,West,271,0.0,0.0,96,0.00,,,0.00,Wunderground v.1.15,2013-03-24 05:55:00,
2013-03-23 23:00:00,43.9,42.8,29.98,West,271,0.0,0.0,96,0.00,,,0.00,Wunderground v.1.15,2013-03-24 06:00:00,
2013-03-23 23:05:00,43.8,42.7,29.98,West,271,0.0,0.0,96,0.00,,,0.00,Wunderground v.1.15,2013-03-24 06:05:00,
2013-03-23 23:10:00,43.6,42.8,29.98,West,271,0.0,0.0,97,0.00,,,0.00,Wunderground v.1.15,2013-03-24 06:10:00,
2013-03-23 23:15:00,43.3,42.5,29.98,West,271,0.0,0.0,97,0.00,,,0.00,Wunderground v.1.15,2013-03-24 06:15:00,
2013-03-23 23:20:00,43.2,42.4,29.98,West,271,0.0,0.0,97,0.00,,,0.00,Wunderground v.1.15,2013-03-24 06:20:00,
2013-03-23 23:25:00,43.1,42.3,29.98,West,271,0.0,0.0,97,0.00,,,0.00,Wunderground v.1.15,2013-03-24 06:25:00,
2013-03-23 23:30:00,43.1,42.3,29.98,West,271,0.0,0.0,97,0.00,,,0.00,Wunderground v.1.15,2013-03-24 06:30:00,
2013-03-23 23:35:00,42.9,42.1,29.98,West,271,0.0,0.0,97,0.00,,,0.00,Wunderground v.1.15,2013-03-24 06:35:00,
2013-03-23 23:40:00,42.8,42.0,29.98,West,271,0.0,0.0,97,0.00,,,0.00,Wunderground v.1.15,2013-03-24 06:40:00,
2013-03-23 23:45:00,42.8,42.0,29.97,West,271,0.0,0.0,97,0.00,,,0.00,Wunderground v.1.15,2013-03-24 06:45:00,
2013-03-23 23:50:00,42.6,41.8,29.97,West,271,0.0,0.0,97,0.00,,,0.00,Wunderground v.1.15,2013-03-24 06:50:00,
2013-03-23 23:55:00,42.6,42.1,29.97,West,271,0.0,0.0,98,0.00,,,0.00,Wunderground v.1.15,2013-03-24 06:55:00,